Phoenix, Illinois
Current Conditions -  °F | °C
As of 5:15 AM on Sunday 21 Dec 2014 (Local Time) from KIGQ Reporting Station
Overcast Overcast  
Wind Chill: 27°   Ceiling: 4000
Heat Index: 32°   Visibility: 10mi
Dew Point: 27°   Wind: 5mph
Humidity: 82%   Direction: 170°S
Pressure: 30.24"   Gusts: NA
Location:  41.6125°N, 87.6495°W
Report Text: KIGQ 211115Z AUTO 17004KT 10SM OVC040 00/M03 A3024 RMK AO2 T00001027
Loading
Personal Weather Stations






























Interactive Weather Map New forecast layout! Learn more

10-Day Weather Forecast

Advertisements
Track Severe Weather on mobile